createdAt,value
2018-07-17T00:00:10.698Z,6.57
2018-07-17T00:02:38.637Z,6.23
2018-07-17T00:05:07.362Z,6.77
2018-07-17T00:07:35.014Z,6.70
2018-07-17T00:10:02.675Z,6.10
2018-07-17T00:12:30.309Z,6.50
2018-07-17T00:14:57.910Z,6.53
2018-07-17T00:17:25.716Z,7.47
2018-07-17T00:19:53.436Z,6.43
2018-07-17T00:22:21.132Z,6.47
2018-07-17T00:24:48.761Z,5.97
2018-07-17T00:27:16.388Z,7.10
2018-07-17T00:29:43.950Z,6.63
2018-07-17T00:32:11.599Z,7.47
2018-07-17T00:34:39.287Z,7.17
2018-07-17T00:37:06.976Z,7.40
2018-07-17T00:39:34.588Z,7.40
2018-07-17T00:42:02.222Z,6.60
2018-07-17T00:44:29.997Z,6.83
2018-07-17T00:46:57.698Z,6.90
2018-07-17T00:49:25.573Z,6.70
2018-07-17T00:51:53.153Z,7.30
2018-07-17T00:54:20.776Z,7.77
2018-07-17T00:56:48.387Z,7.00
2018-07-17T00:59:16.018Z,7.23
2018-07-17T01:01:49.373Z,7.83
2018-07-17T01:04:22.641Z,7.80
2018-07-17T01:06:55.925Z,7.63
2018-07-17T01:09:29.002Z,7.13
2018-07-17T01:12:02.177Z,6.50
2018-07-17T01:14:41.205Z,5.83
2018-07-17T01:17:08.926Z,5.73
2018-07-17T01:19:36.584Z,5.10
2018-07-17T01:22:04.172Z,4.93
2018-07-17T01:24:31.780Z,5.10
2018-07-17T01:26:59.383Z,4.73
2018-07-17T01:29:27.048Z,4.13
2018-07-17T01:31:54.644Z,4.27
2018-07-17T01:34:22.284Z,4.90
2018-07-17T01:36:49.897Z,4.07
2018-07-17T01:39:17.543Z,4.30
2018-07-17T01:41:45.318Z,3.17
2018-07-17T01:44:16.177Z,3.57
2018-07-17T01:46:44.535Z,3.23
2018-07-17T01:49:12.416Z,3.30
2018-07-17T01:51:40.049Z,3.20
2018-07-17T01:54:07.706Z,2.70
2018-07-17T01:56:35.585Z,3.17
2018-07-17T01:59:03.248Z,3.07
2018-07-17T02:01:30.893Z,3.13
2018-07-17T02:03:58.488Z,2.90
2018-07-17T02:06:26.112Z,3.10
2018-07-17T02:08:53.711Z,3.07
2018-07-17T02:11:21.270Z,2.57
2018-07-17T02:13:48.882Z,2.77
2018-07-17T02:16:16.530Z,2.80
2018-07-17T02:18:44.199Z,3.10
2018-07-17T02:21:11.738Z,2.57
2018-07-17T02:23:39.352Z,3.07
2018-07-17T02:26:07.032Z,2.20
2018-07-17T02:28:34.626Z,3.10
2018-07-17T02:31:02.250Z,3.27
2018-07-17T02:33:29.836Z,3.50
2018-07-17T02:35:57.449Z,2.63
2018-07-17T02:38:25.064Z,3.30
2018-07-17T02:40:52.715Z,2.67
2018-07-17T02:43:20.380Z,3.13
2018-07-17T02:45:48.041Z,3.07
2018-07-17T02:48:15.906Z,2.77
2018-07-17T02:50:43.712Z,2.93
2018-07-17T02:53:11.312Z,2.80
2018-07-17T02:55:38.977Z,3.10
2018-07-17T02:58:06.573Z,3.03
2018-07-17T03:00:34.177Z,3.10
2018-07-17T03:03:01.977Z,4.00
2018-07-17T03:05:29.946Z,2.90
2018-07-17T03:07:57.629Z,3.40
2018-07-17T03:10:25.285Z,2.80
2018-07-17T03:12:53.293Z,3.40
2018-07-17T03:15:20.887Z,3.50
2018-07-17T03:17:48.507Z,3.30
2018-07-17T03:20:16.171Z,3.30
2018-07-17T03:22:43.780Z,3.40
2018-07-17T03:25:11.391Z,3.97
2018-07-17T03:27:38.893Z,4.37
2018-07-17T03:30:06.763Z,3.63
2018-07-17T03:32:34.375Z,3.87
2018-07-17T03:35:02.006Z,4.13
2018-07-17T03:37:29.575Z,4.97
2018-07-17T03:39:57.175Z,4.57
2018-07-17T03:42:24.779Z,4.53
2018-07-17T03:44:52.425Z,4.90
2018-07-17T03:47:20.015Z,4.67
2018-07-17T03:49:47.679Z,5.40
2018-07-17T03:52:15.431Z,5.17
2018-07-17T03:54:43.069Z,5.37
2018-07-17T03:57:10.693Z,5.00
2018-07-17T03:59:38.295Z,5.57
2018-07-17T04:02:06.171Z,5.07
2018-07-17T04:04:33.872Z,5.43
2018-07-17T04:07:01.532Z,5.57
2018-07-17T04:09:29.166Z,5.90
2018-07-17T04:11:56.806Z,5.63
2018-07-17T04:14:24.555Z,5.47
2018-07-17T04:16:54.246Z,5.83
2018-07-17T04:19:22.401Z,6.33
2018-07-17T04:21:50.686Z,6.10
2018-07-17T04:24:18.882Z,6.20
2018-07-17T04:26:46.616Z,6.50
2018-07-17T04:29:14.342Z,6.07
2018-07-17T04:31:42.427Z,6.90
2018-07-17T04:34:10.066Z,7.37
2018-07-17T04:36:37.745Z,7.00
2018-07-17T04:39:07.918Z,7.37
2018-07-17T04:41:35.652Z,8.47
2018-07-17T04:44:03.401Z,7.87
2018-07-17T04:46:31.040Z,8.13
2018-07-17T04:48:58.692Z,7.67
2018-07-17T04:51:26.350Z,7.13
2018-07-17T04:53:54.029Z,8.00
2018-07-17T04:56:21.564Z,7.47
2018-07-17T04:58:49.220Z,8.00
2018-07-17T05:01:16.858Z,8.90
2018-07-17T05:03:44.512Z,8.20
2018-07-17T05:06:12.116Z,7.83
2018-07-17T05:08:39.719Z,9.27
2018-07-17T05:11:07.325Z,8.30
2018-07-17T05:13:34.919Z,8.63
2018-07-17T05:16:02.556Z,9.17
2018-07-17T05:18:30.179Z,8.57
2018-07-17T05:20:57.809Z,9.10
2018-07-17T05:23:25.444Z,8.93
2018-07-17T05:25:53.081Z,9.03
2018-07-17T05:28:20.710Z,8.23
2018-07-17T05:30:48.327Z,9.27
2018-07-17T05:33:15.928Z,8.77
2018-07-17T05:35:43.633Z,10.00
2018-07-17T05:38:11.232Z,9.30
2018-07-17T05:40:38.826Z,9.40
2018-07-17T05:43:06.512Z,8.77
2018-07-17T05:45:34.112Z,8.80
2018-07-17T05:48:01.764Z,9.33
2018-07-17T05:50:29.415Z,7.73
2018-07-17T05:52:57.044Z,9.13
2018-07-17T05:55:24.812Z,9.30
2018-07-17T05:57:52.563Z,8.87
2018-07-17T06:00:20.184Z,9.70
2018-07-17T06:02:47.785Z,9.53
2018-07-17T06:05:15.470Z,9.03
2018-07-17T06:07:43.080Z,9.47
2018-07-17T06:10:10.705Z,8.63
2018-07-17T06:12:38.325Z,9.60
2018-07-17T06:15:06.615Z,9.00
2018-07-17T06:17:34.413Z,9.17
2018-07-17T06:20:02.119Z,9.70
2018-07-17T06:22:29.712Z,9.17
2018-07-17T06:24:57.442Z,9.73
2018-07-17T06:27:25.089Z,9.80
2018-07-17T06:29:52.686Z,10.70
2018-07-17T06:32:20.297Z,9.10
2018-07-17T06:34:47.934Z,9.37
2018-07-17T06:37:15.577Z,9.63
2018-07-17T06:39:43.254Z,9.77
2018-07-17T06:42:10.941Z,9.33
2018-07-17T06:44:38.708Z,9.90
2018-07-17T06:47:06.313Z,10.10
2018-07-17T06:49:33.995Z,9.83
2018-07-17T06:52:01.627Z,10.57
2018-07-17T06:54:29.201Z,9.43
2018-07-17T06:56:56.821Z,11.07
2018-07-17T06:59:24.406Z,9.77
2018-07-17T07:01:52.028Z,10.10
2018-07-17T07:04:19.721Z,9.13
2018-07-17T07:06:47.308Z,9.30
2018-07-17T07:09:14.931Z,10.43
2018-07-17T07:11:42.536Z,10.23
2018-07-17T07:14:10.120Z,10.00
2018-07-17T07:16:37.722Z,9.87
2018-07-17T07:19:05.476Z,11.03
2018-07-17T07:21:33.109Z,9.97
2018-07-17T07:24:00.672Z,9.73
2018-07-17T07:26:28.287Z,10.13
2018-07-17T07:28:55.987Z,9.60
2018-07-17T07:31:23.623Z,9.80
2018-07-17T07:33:51.249Z,10.77
2018-07-17T07:36:18.836Z,10.50
2018-07-17T07:38:46.425Z,9.73
2018-07-17T07:41:14.050Z,10.17
2018-07-17T07:43:41.640Z,8.70
2018-07-17T07:46:09.316Z,10.17
2018-07-17T07:48:36.964Z,9.67
2018-07-17T07:51:04.692Z,10.03
2018-07-17T07:53:32.280Z,9.40
2018-07-17T07:55:59.929Z,8.97
2018-07-17T07:58:27.528Z,9.10
2018-07-17T08:00:55.125Z,9.00
2018-07-17T08:03:22.801Z,9.83
2018-07-17T08:05:50.423Z,8.57
2018-07-17T08:08:18.109Z,7.80
2018-07-17T08:10:45.753Z,8.47
2018-07-17T08:13:13.315Z,8.30
2018-07-17T08:15:40.883Z,9.13
2018-07-17T08:18:08.494Z,8.93
2018-07-17T08:20:36.123Z,8.63
2018-07-17T08:23:03.819Z,7.73
2018-07-17T08:25:31.467Z,7.77
2018-07-17T08:27:59.038Z,7.40
2018-07-17T08:30:26.727Z,7.40
2018-07-17T08:32:54.429Z,7.43
2018-07-17T08:35:22.046Z,7.13
2018-07-17T08:37:49.663Z,6.67
2018-07-17T08:40:17.301Z,6.83
2018-07-17T08:42:44.902Z,6.13
2018-07-17T08:45:12.515Z,6.57
2018-07-17T08:47:40.137Z,5.57
2018-07-17T08:50:07.773Z,6.07
2018-07-17T08:52:35.582Z,6.10
2018-07-17T08:55:03.279Z,5.43
2018-07-17T08:57:31.137Z,5.10
2018-07-17T08:59:58.796Z,4.57
2018-07-17T09:02:26.401Z,3.97
2018-07-17T09:04:54.003Z,3.50
2018-07-17T09:07:21.629Z,4.10
2018-07-17T09:09:49.233Z,4.17
2018-07-17T09:12:16.867Z,4.47
2018-07-17T09:14:44.533Z,3.93
2018-07-17T09:17:12.150Z,3.30
2018-07-17T09:19:39.760Z,3.20
2018-07-17T09:22:07.406Z,3.10
2018-07-17T09:24:35.044Z,2.40
2018-07-17T09:27:02.656Z,2.70
2018-07-17T09:29:30.297Z,2.30
2018-07-17T09:31:57.896Z,3.43
2018-07-17T09:34:25.488Z,2.90
2018-07-17T09:36:53.116Z,2.80
2018-07-17T09:39:20.744Z,2.20
2018-07-17T09:41:48.344Z,2.70
2018-07-17T09:44:16.054Z,1.77
2018-07-17T09:46:43.655Z,1.87
2018-07-17T09:49:11.297Z,1.97
2018-07-17T09:51:39.010Z,1.80
2018-07-17T09:54:06.653Z,1.60
2018-07-17T09:56:34.253Z,1.33
2018-07-17T09:59:01.857Z,1.80
2018-07-17T10:01:35.140Z,1.07
2018-07-17T10:04:02.788Z,1.40
2018-07-17T10:06:30.425Z,1.13
2018-07-17T10:08:57.960Z,1.53
2018-07-17T10:11:25.613Z,1.47
2018-07-17T10:13:53.213Z,1.07
2018-07-17T10:16:20.870Z,1.33
2018-07-17T10:18:48.463Z,1.10
2018-07-17T10:21:16.178Z,1.03
2018-07-17T10:23:43.782Z,1.00
2018-07-17T10:26:11.424Z,1.20
2018-07-17T10:28:39.002Z,1.00
2018-07-17T10:31:06.896Z,1.33
2018-07-17T10:33:34.496Z,1.00
2018-07-17T10:36:02.080Z,1.23
2018-07-17T10:38:29.723Z,1.03
2018-07-17T10:40:57.318Z,1.33
2018-07-17T10:43:24.912Z,0.80
2018-07-17T10:45:52.496Z,1.20
2018-07-17T10:48:20.131Z,1.27
2018-07-17T10:50:47.739Z,0.97
2018-07-17T10:53:15.342Z,1.00
2018-07-17T10:55:42.951Z,1.10
2018-07-17T10:58:10.494Z,0.93
2018-07-17T11:00:38.370Z,0.90
2018-07-17T11:03:06.025Z,1.10
2018-07-17T11:05:33.622Z,0.97
2018-07-17T11:08:01.257Z,1.07
2018-07-17T11:10:28.794Z,1.20
2018-07-17T11:12:56.553Z,1.10
2018-07-17T11:15:24.136Z,0.63
2018-07-17T11:17:51.941Z,1.00
2018-07-17T11:20:19.630Z,1.00
2018-07-17T11:22:47.213Z,0.70
2018-07-17T11:25:14.820Z,0.70
2018-07-17T11:27:42.453Z,0.73
2018-07-17T11:30:10.163Z,1.03
2018-07-17T11:32:37.771Z,1.10
2018-07-17T11:35:05.716Z,0.70
2018-07-17T11:37:33.367Z,0.70
2018-07-17T11:40:01.019Z,1.13
2018-07-17T11:42:28.679Z,0.97
2018-07-17T11:44:56.280Z,0.83
2018-07-17T11:47:23.827Z,0.70
2018-07-17T11:49:51.397Z,0.80
2018-07-17T11:52:18.956Z,0.85
2018-07-17T11:54:46.568Z,1.15
2018-07-17T11:57:14.178Z,0.97
2018-07-17T11:59:41.736Z,0.87
2018-07-17T12:02:09.327Z,0.82
2018-07-17T12:04:36.913Z,0.70
2018-07-17T12:07:04.460Z,1.00
2018-07-17T12:09:32.033Z,1.07
2018-07-17T12:11:59.635Z,0.90
2018-07-17T12:14:27.214Z,0.90
2018-07-17T12:16:54.781Z,0.90
2018-07-17T12:19:22.363Z,1.00
2018-07-17T12:21:49.985Z,0.90
2018-07-17T12:24:17.613Z,1.10
2018-07-17T12:26:45.272Z,1.00
2018-07-17T12:29:12.836Z,1.02
2018-07-17T12:31:40.379Z,0.90
2018-07-17T12:34:08.018Z,1.00
2018-07-17T12:36:35.580Z,1.00
2018-07-17T12:39:03.939Z,1.20
2018-07-17T12:41:31.635Z,1.10
2018-07-17T12:43:59.240Z,1.00
2018-07-17T12:46:26.906Z,1.07
2018-07-17T12:48:54.465Z,0.90
2018-07-17T12:51:22.112Z,1.20
2018-07-17T12:53:49.753Z,1.05
2018-07-17T12:56:17.409Z,1.00
2018-07-17T12:58:45.027Z,0.93
2018-07-17T13:01:12.729Z,1.47
2018-07-17T13:03:40.416Z,0.98
2018-07-17T13:06:08.069Z,0.90
2018-07-17T13:08:35.741Z,1.10
2018-07-17T13:11:03.389Z,0.80
2018-07-17T13:13:30.977Z,0.80
2018-07-17T13:15:58.639Z,1.00
2018-07-17T13:18:26.280Z,1.17
2018-07-17T13:20:53.787Z,1.10
2018-07-17T13:23:21.417Z,1.02
2018-07-17T13:25:49.014Z,0.88
2018-07-17T13:28:16.826Z,0.80
2018-07-17T13:30:44.462Z,1.00
2018-07-17T13:33:12.027Z,1.07
2018-07-17T13:35:39.689Z,1.35
2018-07-17T13:38:07.280Z,1.20
2018-07-17T13:40:34.929Z,0.93
2018-07-17T13:43:02.517Z,1.10
2018-07-17T13:45:30.588Z,0.90
2018-07-17T13:47:58.187Z,0.98
2018-07-17T13:50:25.880Z,1.20
2018-07-17T13:52:54.668Z,1.25
2018-07-17T13:55:22.379Z,1.20
2018-07-17T13:57:49.985Z,1.05
2018-07-17T14:00:17.787Z,1.00
2018-07-17T14:02:45.382Z,0.80
2018-07-17T14:05:13.019Z,0.90
2018-07-17T14:07:40.625Z,1.32
2018-07-17T14:10:08.275Z,1.12
2018-07-17T14:12:35.837Z,1.20
2018-07-17T14:15:03.693Z,1.10
2018-07-17T14:17:31.307Z,1.27
2018-07-17T14:19:58.860Z,1.60
2018-07-17T14:22:26.466Z,1.35
2018-07-17T14:24:54.050Z,1.50
2018-07-17T14:27:21.618Z,1.50
2018-07-17T14:29:49.142Z,1.60
2018-07-17T14:32:16.769Z,1.50
2018-07-17T14:34:44.327Z,1.50
2018-07-17T14:37:11.906Z,1.67
2018-07-17T14:39:39.509Z,1.50
2018-07-17T14:42:07.002Z,1.30
2018-07-17T14:44:34.751Z,1.30
2018-07-17T14:47:02.411Z,1.40
2018-07-17T14:49:30.001Z,1.17
2018-07-17T14:51:57.581Z,1.12
2018-07-17T14:54:25.149Z,1.22
2018-07-17T14:56:52.720Z,1.45
2018-07-17T14:59:20.492Z,1.30
2018-07-17T15:01:48.138Z,1.40
2018-07-17T15:04:15.792Z,1.10
2018-07-17T15:06:43.390Z,1.00
2018-07-17T15:09:10.977Z,1.30
2018-07-17T15:11:38.621Z,1.57
2018-07-17T15:14:06.226Z,1.30
2018-07-17T15:16:33.872Z,1.32
2018-07-17T15:19:01.455Z,1.10
2018-07-17T15:21:29.052Z,1.27
2018-07-17T15:23:56.665Z,1.15
2018-07-17T15:26:24.306Z,1.20
2018-07-17T15:28:51.928Z,1.25
2018-07-17T15:31:19.586Z,1.52
2018-07-17T15:33:47.147Z,1.37
2018-07-17T15:36:14.830Z,1.27
2018-07-17T15:38:42.420Z,1.22
2018-07-17T15:41:10.109Z,1.20
2018-07-17T15:43:37.789Z,1.20
2018-07-17T15:46:05.392Z,1.30
2018-07-17T15:48:33.016Z,1.17
2018-07-17T15:51:00.660Z,1.17
2018-07-17T15:53:28.366Z,1.10
2018-07-17T15:55:55.918Z,1.10
2018-07-17T15:58:23.497Z,1.10
2018-07-17T16:00:51.145Z,1.27
2018-07-17T16:03:18.968Z,1.30
2018-07-17T16:05:46.651Z,1.00
2018-07-17T16:08:14.229Z,1.40
2018-07-17T16:10:41.913Z,0.93
2018-07-17T16:13:09.525Z,1.20
2018-07-17T16:15:37.181Z,1.50
2018-07-17T16:18:04.970Z,1.10
2018-07-17T16:20:32.608Z,1.40
2018-07-17T16:23:00.241Z,1.40
2018-07-17T16:25:27.860Z,1.35
2018-07-17T16:27:56.329Z,1.50
2018-07-17T16:30:24.178Z,1.30
2018-07-17T16:32:51.783Z,1.42
2018-07-17T16:35:19.429Z,1.20
2018-07-17T16:37:47.092Z,1.20
2018-07-17T16:40:14.786Z,1.40
2018-07-17T16:42:42.431Z,1.30
2018-07-17T16:45:10.085Z,1.25
2018-07-17T16:47:37.723Z,1.27
2018-07-17T16:50:05.535Z,1.50
2018-07-17T16:52:33.240Z,1.20
2018-07-17T16:55:00.958Z,1.40
2018-07-17T16:57:28.615Z,1.70
2018-07-17T16:59:56.296Z,1.50
2018-07-17T17:02:23.890Z,1.22
2018-07-17T17:04:51.506Z,1.30
2018-07-17T17:07:19.129Z,1.67
2018-07-17T17:09:46.804Z,1.25
2018-07-17T17:12:14.576Z,1.40
2018-07-17T17:14:42.248Z,1.27
2018-07-17T17:17:09.992Z,1.45
2018-07-17T17:19:37.586Z,1.17
2018-07-17T17:22:05.218Z,1.47
2018-07-17T17:24:32.848Z,1.60
2018-07-17T17:27:00.457Z,1.10
2018-07-17T17:29:28.172Z,1.72
2018-07-17T17:31:55.736Z,1.90
2018-07-17T17:34:23.316Z,1.37
2018-07-17T17:36:50.988Z,1.22
2018-07-17T17:39:18.607Z,1.50
2018-07-17T17:41:46.249Z,1.50
2018-07-17T17:44:13.856Z,1.57
2018-07-17T17:46:49.104Z,1.75
2018-07-17T17:49:26.349Z,1.57
2018-07-17T17:52:00.639Z,2.02
2018-07-17T17:54:46.589Z,1.47
2018-07-17T17:57:23.027Z,1.80
2018-07-17T17:59:50.684Z,1.30
2018-07-17T18:02:18.302Z,1.20
2018-07-17T18:04:53.031Z,1.02
2018-07-17T18:07:22.277Z,1.32
2018-07-17T18:09:54.844Z,1.20
2018-07-17T18:12:28.000Z,1.50
2018-07-17T18:15:00.845Z,1.02
2018-07-17T18:17:34.903Z,1.47
2018-07-17T18:20:09.237Z,1.17
2018-07-17T18:22:37.910Z,1.50
2018-07-17T18:25:12.655Z,1.47
2018-07-17T18:27:40.452Z,1.00
2018-07-17T18:30:08.045Z,1.27
2018-07-17T18:32:35.659Z,1.43
2018-07-17T18:35:03.340Z,1.30
2018-07-17T18:37:31.325Z,1.27
2018-07-17T18:39:59.032Z,1.30
2018-07-17T18:42:26.596Z,1.37
2018-07-17T18:44:54.182Z,0.93
2018-07-17T18:47:21.882Z,1.33
2018-07-17T18:50:11.997Z,0.90
2018-07-17T18:52:17.296Z,1.20
2018-07-17T18:54:44.869Z,1.20
2018-07-17T18:57:12.493Z,1.00
2018-07-17T18:59:40.151Z,1.17
2018-07-17T19:02:08.740Z,1.17
2018-07-17T19:04:36.974Z,1.10
2018-07-17T19:07:04.709Z,1.00
2018-07-17T19:09:32.300Z,1.27
2018-07-17T19:11:59.917Z,1.33
2018-07-17T19:14:27.505Z,1.10
2018-07-17T19:16:55.202Z,1.20
2018-07-17T19:19:22.882Z,0.90
2018-07-17T19:21:50.480Z,1.10
2018-07-17T19:24:18.102Z,1.30
2018-07-17T19:26:45.670Z,1.10
2018-07-17T19:29:13.331Z,1.00
2018-07-17T19:31:40.918Z,0.83
2018-07-17T19:34:08.439Z,1.33
2018-07-17T19:36:36.044Z,1.90
2018-07-17T19:39:05.531Z,1.40
2018-07-17T19:41:33.140Z,1.33
2018-07-17T19:44:00.778Z,1.37
2018-07-17T19:46:28.465Z,1.63
2018-07-17T19:48:56.061Z,1.00
2018-07-17T19:51:23.656Z,1.50
2018-07-17T19:53:51.304Z,1.07
2018-07-17T19:56:18.980Z,1.00
2018-07-17T19:58:46.627Z,1.30
2018-07-17T20:01:14.328Z,1.00
2018-07-17T20:03:41.972Z,1.00
2018-07-17T20:06:09.597Z,1.40
2018-07-17T20:08:37.295Z,1.50
2018-07-17T20:11:04.920Z,1.50
2018-07-17T20:13:32.600Z,1.37
2018-07-17T20:16:00.210Z,1.40
2018-07-17T20:18:27.870Z,1.20
2018-07-17T20:20:55.544Z,1.27
2018-07-17T20:23:23.221Z,1.20
2018-07-17T20:25:51.019Z,1.30
2018-07-17T20:28:18.748Z,1.60
2018-07-17T20:30:46.414Z,1.93
2018-07-17T20:33:14.078Z,1.13
2018-07-17T20:35:41.694Z,1.20
2018-07-17T20:38:09.453Z,1.27
2018-07-17T20:40:37.132Z,1.13
2018-07-17T20:43:05.274Z,1.43
2018-07-17T20:45:32.997Z,1.33
2018-07-17T20:48:00.591Z,1.17
2018-07-17T20:50:28.281Z,1.33
2018-07-17T20:52:56.095Z,0.87
2018-07-17T20:55:23.720Z,1.97
2018-07-17T20:57:51.419Z,1.20
2018-07-17T21:00:19.261Z,1.23
2018-07-17T21:02:46.872Z,1.37
2018-07-17T21:05:14.577Z,1.20
2018-07-17T21:07:42.230Z,1.00
2018-07-17T21:10:09.899Z,1.27
2018-07-17T21:12:37.553Z,1.40
2018-07-17T21:15:05.462Z,1.10
2018-07-17T21:17:33.383Z,1.70
2018-07-17T21:20:01.047Z,1.30
2018-07-17T21:22:28.738Z,1.17
2018-07-17T21:24:56.517Z,1.30
2018-07-17T21:27:24.149Z,1.40
2018-07-17T21:29:51.757Z,1.10
2018-07-17T21:32:19.686Z,1.40
2018-07-17T21:34:47.317Z,1.30
2018-07-17T21:37:14.941Z,1.33
2018-07-17T21:39:42.529Z,1.40
2018-07-17T21:42:10.097Z,1.30
2018-07-17T21:44:37.747Z,1.30
2018-07-17T21:47:05.331Z,1.50
2018-07-17T21:49:32.952Z,1.13
2018-07-17T21:52:00.600Z,1.40
2018-07-17T21:54:28.268Z,1.10
2018-07-17T21:56:55.857Z,1.40
2018-07-17T21:59:23.479Z,1.53
2018-07-17T22:04:25.509Z,2.00
2018-07-17T22:06:53.208Z,1.40
2018-07-17T22:09:20.800Z,1.50
2018-07-17T22:11:48.446Z,1.40
2018-07-17T22:14:16.072Z,1.33
2018-07-17T22:16:43.712Z,1.13
2018-07-17T22:19:11.324Z,1.83
2018-07-17T22:21:38.903Z,1.70
2018-07-17T22:24:06.476Z,1.70
2018-07-17T22:26:34.110Z,1.40
2018-07-17T22:29:01.708Z,1.40
2018-07-17T22:31:29.326Z,1.37
2018-07-17T22:33:56.945Z,1.30
2018-07-17T22:36:24.611Z,1.47
2018-07-17T22:38:52.216Z,1.30
2018-07-17T22:41:19.877Z,1.53
2018-07-17T22:43:47.465Z,1.73
2018-07-17T22:46:15.121Z,1.50
2018-07-17T22:48:42.716Z,1.43
2018-07-17T22:51:10.319Z,1.20
2018-07-17T22:53:37.965Z,1.30
2018-07-17T22:56:05.491Z,1.30
2018-07-17T22:58:33.060Z,1.20
2018-07-17T23:01:00.629Z,1.30
2018-07-17T23:03:28.233Z,1.43
2018-07-17T23:05:55.899Z,1.27
2018-07-17T23:08:23.502Z,1.57
2018-07-17T23:10:51.130Z,1.33
2018-07-17T23:13:18.917Z,1.33
2018-07-17T23:15:46.510Z,1.53
2018-07-17T23:18:14.173Z,1.40
2018-07-17T23:20:41.766Z,1.63
2018-07-17T23:23:09.400Z,1.43
2018-07-17T23:25:37.031Z,1.50
2018-07-17T23:28:04.635Z,1.00
2018-07-17T23:30:32.242Z,0.80
2018-07-17T23:32:59.882Z,1.50
2018-07-17T23:35:27.454Z,0.90
2018-07-17T23:37:55.088Z,1.53
2018-07-17T23:40:23.043Z,1.20
2018-07-17T23:42:50.706Z,1.10
2018-07-17T23:45:18.533Z,0.97
2018-07-17T23:47:46.920Z,1.03
2018-07-17T23:50:14.466Z,1.40
2018-07-17T23:52:42.060Z,1.50
2018-07-17T23:55:09.665Z,1.20
2018-07-17T23:57:37.237Z,1.40
